Time;durP1;ratioP1;P1;durP2;ratioP2;P2;SDS_P1;SDS_P2;PMS_P1;PMS_P2;Temp;Humidity;BMP_temperature;BMP_pressure;BME280_temperature;BME280_humidity;BME280_pressure;Samples;Min_cycle;Max_cycle;Signal;HPM_P1;HPM_P2
2021/12/08 00:00:30;;;;;;;;;3.00;1.00;;;;;8.19;63.24;98854.88;5059027;28;45513;-62
2021/12/08 00:02:57;;;;;;;;;2.00;0.00;;;;;8.15;63.18;98851.72;5059169;28;45744;-61
2021/12/08 00:05:23;;;;;;;;;3.25;0.00;;;;;8.12;63.11;98841.59;5059238;28;45408;-62
2021/12/08 00:07:49;;;;;;;;;2.00;1.00;;;;;8.11;63.01;98845.19;5076673;28;57788;-62
2021/12/08 00:10:28;;;;;;;;;1.00;1.00;;;;;8.10;63.14;98846.16;5076928;28;46191;-61
2021/12/08 00:15:29;;;;;;;;;2.00;0.00;;;;;8.04;63.32;98846.00;5077125;28;45213;-61
2021/12/08 00:17:54;;;;;;;;;2.00;1.00;;;;;8.02;63.22;98848.78;5059022;28;45614;-61
2021/12/08 00:20:19;;;;;;;;;4.25;1.50;;;;;8.01;62.81;98849.75;5076818;28;45217;-62
2021/12/08 00:22:45;;;;;;;;;1.75;1.00;;;;;7.98;63.10;98860.53;5076883;28;45211;-61
2021/12/08 00:25:10;;;;;;;;;2.75;1.00;;;;;7.95;63.18;98858.25;5057978;28;64203;-62
2021/12/08 00:27:36;;;;;;;;;3.25;1.00;;;;;7.92;63.61;98850.75;5076863;28;45508;-62
2021/12/08 00:30:01;;;;;;;;;4.50;0.75;;;;;7.91;63.45;98851.72;5076706;28;45594;-61
2021/12/08 00:32:29;;;;;;;;;1.75;1.00;;;;;7.87;63.62;98846.81;5076856;28;45439;-61
2021/12/08 00:34:55;;;;;;;;;1.75;1.00;;;;;7.85;63.50;98848.75;5040937;28;45408;-62
2021/12/08 00:37:20;;;;;;;;;1.00;1.00;;;;;7.85;63.60;98851.38;5076243;28;55135;-61
2021/12/08 00:39:46;;;;;;;;;1.00;0.00;;;;;7.81;63.62;98844.81;5075940;28;62528;-62
2021/12/08 00:42:11;;;;;;;;;0.50;0.50;;;;;7.81;63.76;98852.66;5076443;28;45406;-61
2021/12/08 00:44:37;;;;;;;;;2.75;1.00;;;;;7.78;63.71;98847.75;5076645;28;45669;-61
2021/12/08 00:47:03;;;;;;;;;1.00;1.00;;;;;7.77;63.73;98850.53;5076736;28;45505;-61
2021/12/08 00:49:28;;;;;;;;;0.50;0.50;;;;;7.75;63.97;98861.16;5076470;28;46865;-61
2021/12/08 00:51:54;;;;;;;;;3.00;1.00;;;;;7.71;63.98;98854.59;5058293;28;45297;-61
2021/12/08 00:54:19;;;;;;;;;2.50;1.00;;;;;7.68;64.05;98867.97;5076657;28;45223;-61
2021/12/08 00:56:45;;;;;;;;;3.00;1.00;;;;;7.64;64.08;98875.34;5024309;28;45632;-61
2021/12/08 00:59:10;;;;;;;;;3.50;1.00;;;;;7.62;64.23;98877.28;5076201;28;53730;-61
2021/12/08 01:01:36;;;;;;;;;2.00;0.25;;;;;7.61;64.21;98875.66;5075731;28;65684;-61
2021/12/08 01:04:01;;;;;;;;;1.00;1.00;;;;;7.61;64.04;98866.97;5076045;28;53799;-61
2021/12/08 01:06:26;;;;;;;;;0.50;0.50;;;;;7.58;63.97;98868.13;5058223;28;45290;-62
2021/12/08 01:08:52;;;;;;;;;0.25;0.00;;;;;7.56;63.95;98876.09;5076318;28;46356;-61
2021/12/08 01:11:18;;;;;;;;;1.25;1.00;;;;;7.56;63.96;98877.91;5057729;28;52059;-61
2021/12/08 01:13:43;;;;;;;;;1.25;0.00;;;;;7.54;64.27;98874.63;5076414;28;45286;-61
2021/12/08 01:16:09;;;;;;;;;1.25;1.00;;;;;7.51;64.10;98883.59;5075531;28;53289;-62
2021/12/08 01:18:34;;;;;;;;;1.00;1.00;;;;;7.51;63.79;98888.03;5075285;28;64596;-61
2021/12/08 01:21:04;;;;;;;;;1.00;1.00;;;;;7.51;63.99;98885.41;5075316;28;65850;-61
2021/12/08 01:23:30;;;;;;;;;1.25;0.00;;;;;7.48;63.56;98863.00;5076333;28;45345;-61
2021/12/08 01:25:55;;;;;;;;;0.75;0.00;;;;;7.47;63.61;98858.75;5076067;28;45640;-61
2021/12/08 01:28:22;;;;;;;;;1.25;0.00;;;;;7.46;63.38;98864.94;5075982;28;45558;-61
2021/12/08 01:30:49;;;;;;;;;0.00;0.00;;;;;7.45;63.21;98873.78;5057941;28;45802;-62
2021/12/08 01:33:14;;;;;;;;;1.00;0.00;;;;;7.43;63.17;98875.72;5076047;28;45268;-61
2021/12/08 01:35:40;;;;;;;;;0.50;0.50;;;;;7.41;63.28;98864.63;5076028;28;45320;-61
2021/12/08 01:38:05;;;;;;;;;0.00;0.00;;;;;7.39;63.11;98861.34;5075078;28;68496;-61
2021/12/08 01:40:31;;;;;;;;;0.50;0.50;;;;;7.35;63.19;98855.59;5056867;28;70017;-61
2021/12/08 01:42:58;;;;;;;;;1.50;0.00;;;;;7.34;63.25;98856.59;5056994;28;52581;-62
2021/12/08 01:48:11;;;;;;;;;0.75;0.50;;;;;7.29;63.09;98858.84;5079286;28;45390;-62
2021/12/08 01:50:37;;;;;;;;;0.00;0.00;;;;;7.26;63.16;98860.00;5079081;28;45892;-61
2021/12/08 01:53:03;;;;;;;;;0.00;0.00;;;;;7.25;63.16;98874.03;5079269;28;45438;-61
2021/12/08 01:55:28;;;;;;;;;0.50;0.00;;;;;7.20;63.22;98867.63;5079051;28;45522;-61
2021/12/08 01:57:53;;;;;;;;;0.00;0.00;;;;;7.20;63.12;98871.06;5078279;28;63211;-61
2021/12/08 02:00:28;;;;;;;;;2.75;1.75;;;;;7.17;63.12;98887.03;5078979;28;45457;-61
2021/12/08 02:02:53;;;;;;;;;1.00;0.00;;;;;7.13;63.04;98886.53;5061005;28;45437;-61
2021/12/08 02:05:19;;;;;;;;;0.00;0.00;;;;;7.11;63.26;98908.53;5060118;28;63458;-61
2021/12/08 02:07:44;;;;;;;;;1.00;1.00;;;;;7.08;63.29;98908.84;5079012;28;45397;-62
2021/12/08 02:10:10;;;;;;;;;0.00;0.00;;;;;7.05;63.45;98896.09;5060840;28;45376;-61
2021/12/08 02:12:39;;;;;;;;;0.00;0.00;;;;;7.04;63.40;98915.34;5043994;28;45377;-61
2021/12/08 02:15:05;;;;;;;;;0.00;0.00;;;;;7.01;63.55;98897.38;5079090;28;45518;-61
2021/12/08 02:17:30;;;;;;;;;2.00;1.00;;;;;6.99;63.42;98905.38;5078831;28;45541;-61
2021/12/08 02:19:56;;;;;;;;;0.75;0.00;;;;;6.97;63.66;98907.31;5077828;28;70379;-62
2021/12/08 02:22:21;;;;;;;;;0.75;0.75;;;;;6.94;63.76;98911.03;5078584;28;46954;-61
2021/12/08 02:24:47;;;;;;;;;1.00;0.00;;;;;6.91;63.95;98927.00;5059856;28;62826;-61
2021/12/08 02:27:12;;;;;;;;;2.00;0.00;;;;;6.92;63.77;98939.09;5078465;28;45437;-61
2021/12/08 02:29:52;;;;;;;;;2.00;0.00;;;;;6.90;63.94;98941.03;5078681;28;45351;-61
2021/12/08 02:48:27;;;;;;;;;4.50;0.75;;;;;6.77;64.68;98944.03;5078154;28;45864;-61
2021/12/08 02:50:53;;;;;;;;;1.50;0.00;;;;;6.75;64.71;98935.53;5078219;28;45394;-61
2021/12/08 02:53:18;;;;;;;;;2.00;1.00;;;;;6.75;64.78;98929.53;5059457;28;62444;-62
2021/12/08 02:55:44;;;;;;;;;0.00;0.00;;;;;6.73;64.67;98931.47;5059147;28;66109;-61
2021/12/08 02:58:10;;;;;;;;;0.00;0.00;;;;;6.70;64.65;98939.59;5058979;28;55027;-61
2021/12/08 03:00:45;;;;;;;;;0.75;0.50;;;;;6.67;64.88;98945.91;5078071;28;45830;-61
2021/12/08 03:03:11;;;;;;;;;1.00;0.00;;;;;6.65;64.85;98946.06;5060010;28;45479;-61
2021/12/08 03:05:36;;;;;;;;;0.00;0.00;;;;;6.62;64.76;98935.94;5059944;28;45357;-62
2021/12/08 03:08:05;;;;;;;;;3.25;0.00;;;;;6.62;64.92;98945.56;5059712;28;47409;-61
2021/12/08 03:10:31;;;;;;;;;1.50;0.00;;;;;6.60;65.00;98945.69;5059303;28;45353;-62
2021/12/08 03:12:57;;;;;;;;;0.50;0.50;;;;;6.60;64.78;98934.47;5078010;28;45384;-61
2021/12/08 03:15:22;;;;;;;;;0.00;0.00;;;;;6.60;64.81;98932.66;5059678;28;45459;-61
2021/12/08 03:17:47;;;;;;;;;1.25;0.00;;;;;6.62;64.65;98941.16;5077057;28;66816;-61
2021/12/08 03:20:23;;;;;;;;;1.00;0.00;;;;;6.62;64.45;98935.13;5077366;28;56567;-61
2021/12/08 03:22:50;;;;;;;;;3.25;1.00;;;;;6.60;64.54;98942.28;5059662;28;45421;-61
2021/12/08 03:25:19;;;;;;;;;0.00;0.00;;;;;6.59;64.37;98945.88;5077860;28;45637;-62
2021/12/08 03:27:52;;;;;;;;;0.00;0.00;;;;;6.57;64.34;98938.16;5060163;28;45422;-62
2021/12/08 03:30:28;;;;;;;;;0.00;0.00;;;;;6.57;64.38;98925.13;5077667;28;45748;-61
2021/12/08 03:32:58;;;;;;;;;0.75;0.75;;;;;6.57;64.29;98926.94;5059363;28;45268;-61
2021/12/08 03:35:24;;;;;;;;;3.00;3.00;;;;;6.55;64.29;98931.47;5077682;28;45361;-62
2021/12/08 03:37:49;;;;;;;;;0.00;0.00;;;;;6.55;64.36;98923.66;5059336;28;46271;-61
2021/12/08 03:40:15;;;;;;;;;0.00;0.00;;;;;6.54;64.23;98917.59;5077518;28;45339;-61
2021/12/08 03:42:41;;;;;;;;;0.00;0.00;;;;;6.53;64.13;98903.75;5077403;28;45392;-61
2021/12/08 03:45:30;;;;;;;;;3.00;0.25;;;;;6.52;64.26;98899.50;5042648;28;45344;-61
2021/12/08 03:48:00;;;;;;;;;0.00;0.00;;;;;6.52;64.21;98902.09;5077437;28;45450;-62
2021/12/08 03:50:26;;;;;;;;;2.50;0.25;;;;;6.53;64.24;98908.97;5027276;28;45318;-62
2021/12/08 03:52:51;;;;;;;;;1.00;0.00;;;;;6.51;64.28;98908.28;5077450;28;45325;-61
2021/12/08 03:55:17;;;;;;;;;3.00;0.50;;;;;6.51;64.13;98897.03;5076549;28;62701;-61
2021/12/08 03:57:42;;;;;;;;;0.75;0.00;;;;;6.50;64.26;98893.59;5076501;28;63671;-61
2021/12/08 04:00:16;;;;;;;;;0.75;0.50;;;;;6.49;64.33;98883.28;5077156;28;45403;-61
2021/12/08 04:02:42;;;;;;;;;2.00;1.00;;;;;6.48;64.42;98884.28;5077440;28;45308;-61
2021/12/08 04:05:07;;;;;;;;;1.25;0.00;;;;;6.47;64.22;98893.06;5076839;28;52604;-61
2021/12/08 04:07:33;;;;;;;;;1.00;0.00;;;;;6.46;64.28;98888.81;5076934;28;46105;-61
2021/12/08 04:09:58;;;;;;;;;2.25;1.00;;;;;6.44;64.42;98888.16;5057781;28;45415;-61
2021/12/08 04:12:24;;;;;;;;;2.00;0.00;;;;;6.43;64.56;98889.13;5077006;28;45464;-61
2021/12/08 04:14:58;;;;;;;;;0.00;0.00;;;;;6.42;64.49;98882.25;5077186;28;45537;-61
2021/12/08 04:17:28;;;;;;;;;4.00;0.00;;;;;6.41;64.62;98898.88;5058787;28;45529;-61
2021/12/08 04:19:54;;;;;;;;;0.50;0.25;;;;;6.39;64.56;98880.78;5058792;28;45337;-61
2021/12/08 04:22:31;;;;;;;;;0.00;0.00;;;;;6.37;64.73;98883.53;5058977;28;45323;-61
2021/12/08 04:24:57;;;;;;;;;2.00;0.75;;;;;6.36;64.93;98892.31;5059047;28;45300;-61
2021/12/08 04:27:29;;;;;;;;;0.00;0.00;;;;;6.33;64.92;98887.44;5058599;28;45355;-61
2021/12/08 04:29:54;;;;;;;;;2.75;1.00;;;;;6.31;64.92;98889.38;5059418;28;45457;-61
2021/12/08 04:32:21;;;;;;;;;1.00;1.00;;;;;6.30;65.17;98892.94;5075975;28;66593;-61
2021/12/08 04:34:49;;;;;;;;;1.00;0.00;;;;;6.28;65.19;98886.22;5076879;28;45424;-62
2021/12/08 04:37:24;;;;;;;;;0.00;0.00;;;;;6.26;65.17;98888.16;5057803;28;46858;-61
2021/12/08 04:42:26;;;;;;;;;2.50;1.00;;;;;6.23;65.29;98894.50;5076252;28;45487;-61
2021/12/08 04:44:58;;;;;;;;;1.00;1.00;;;;;6.22;65.49;98908.50;5059740;28;45279;-61
2021/12/08 04:47:35;;;;;;;;;0.75;0.75;;;;;6.20;65.61;98900.00;5076553;28;45409;-61
2021/12/08 04:53:00;;;;;;;;;0.25;0.25;;;;;6.16;65.63;98904.69;5061361;28;45358;-61
2021/12/08 05:01:22;;;;;;;;;4.00;1.00;;;;;6.10;65.82;98915.69;5061041;28;45381;-61
2021/12/08 05:04:09;;;;;;;;;2.00;1.00;;;;;6.08;65.93;98918.47;5076415;28;45358;-61
2021/12/08 05:06:48;;;;;;;;;0.25;0.00;;;;;6.07;65.95;98914.22;5061230;28;45221;-61
2021/12/08 05:09:18;;;;;;;;;2.00;2.00;;;;;6.05;65.82;98926.59;5076200;28;45416;-61
2021/12/08 05:11:50;;;;;;;;;2.25;0.00;;;;;6.02;66.07;98929.50;5076101;28;45237;-61
2021/12/08 05:14:19;;;;;;;;;1.75;1.50;;;;;6.00;66.15;98926.19;5075569;28;45465;-61
2021/12/08 05:16:46;;;;;;;;;3.00;2.00;;;;;5.99;66.23;98934.16;5075961;28;45561;-61
2021/12/08 05:19:12;;;;;;;;;4.00;2.00;;;;;5.98;66.52;98935.13;5075831;28;46249;-61
2021/12/08 05:22:09;;;;;;;;;1.00;1.00;;;;;5.97;66.53;98931.69;5078859;28;45744;-61
2021/12/08 05:24:38;;;;;;;;;1.00;1.00;;;;;5.98;66.40;98938.53;5061771;28;45432;-61
2021/12/08 05:27:11;;;;;;;;;1.00;1.00;;;;;5.96;66.52;98945.69;5061920;28;45319;-61
2021/12/08 05:29:40;;;;;;;;;1.00;0.00;;;;;5.95;66.68;98946.66;5079439;28;45645;-62
2021/12/08 05:32:06;;;;;;;;;2.75;1.00;;;;;5.94;66.70;98955.44;5079505;28;45379;-61
2021/12/08 05:34:35;;;;;;;;;2.00;2.00;;;;;5.92;66.58;98941.72;5079606;28;45601;-61
2021/12/08 05:37:01;;;;;;;;;1.00;0.50;;;;;5.91;66.59;98953.94;5061362;28;45399;-61
2021/12/08 05:39:28;;;;;;;;;2.00;1.00;;;;;5.89;66.57;98961.09;5061119;28;47421;-61
2021/12/08 05:41:59;;;;;;;;;1.00;1.00;;;;;5.88;66.49;98963.81;5079184;28;45393;-61
2021/12/08 05:44:25;;;;;;;;;1.00;1.00;;;;;5.87;66.51;98967.41;5079495;28;45347;-62
2021/12/08 05:46:51;;;;;;;;;1.00;1.00;;;;;5.85;66.50;98964.13;5078442;28;67233;-61
2021/12/08 05:49:17;;;;;;;;;3.75;1.00;;;;;5.86;66.54;98968.34;5079334;28;45337;-61
2021/12/08 05:51:43;;;;;;;;;2.50;0.50;;;;;5.85;66.66;98956.28;5061191;28;45407;-61
2021/12/08 05:54:13;;;;;;;;;2.25;1.00;;;;;5.85;66.46;98951.91;5061268;28;45352;-61
2021/12/08 05:56:39;;;;;;;;;1.50;0.75;;;;;5.82;66.59;98947.00;5079117;28;45373;-61
2021/12/08 05:59:05;;;;;;;;;2.00;1.75;;;;;5.81;66.66;98947.97;5060961;28;46351;-61
2021/12/08 06:01:37;;;;;;;;;3.75;1.00;;;;;5.81;66.76;98954.97;5078986;28;45301;-61
2021/12/08 06:04:03;;;;;;;;;0.25;0.25;;;;;5.78;66.65;98954.28;5079218;28;45312;-62
2021/12/08 06:06:29;;;;;;;;;0.00;0.00;;;;;5.77;66.69;98944.84;5060684;28;45332;-61
2021/12/08 06:08:54;;;;;;;;;2.00;0.00;;;;;5.75;66.67;98944.16;5059678;28;74112;-61
2021/12/08 06:11:20;;;;;;;;;1.50;0.25;;;;;5.73;66.66;98947.84;5078776;28;45292;-61
2021/12/08 06:13:46;;;;;;;;;1.00;1.00;;;;;5.72;66.70;98957.47;5079012;28;45359;-61
2021/12/08 06:16:13;;;;;;;;;2.25;0.00;;;;;5.70;67.09;98953.34;5078277;28;45667;-61
2021/12/08 06:18:40;;;;;;;;;1.00;1.00;;;;;5.68;67.11;98953.50;5077471;28;46629;-62
2021/12/08 06:21:11;;;;;;;;;1.50;1.00;;;;;5.65;67.15;98956.41;5043239;28;45251;-62
2021/12/08 06:23:37;;;;;;;;;1.00;1.00;;;;;5.64;66.97;98963.38;5078641;28;45259;-62
2021/12/08 06:26:03;;;;;;;;;2.75;2.00;;;;;5.64;67.06;98962.56;5060323;28;45452;-61
2021/12/08 06:28:28;;;;;;;;;0.25;0.00;;;;;5.63;67.05;98964.34;5078141;28;46317;-61
2021/12/08 06:30:54;;;;;;;;;2.25;1.25;;;;;5.63;67.08;98972.16;5076763;28;62898;-61
2021/12/08 06:33:20;;;;;;;;;1.50;1.00;;;;;5.63;67.18;98966.16;5076376;28;65308;-61
2021/12/08 06:35:59;;;;;;;;;2.00;0.75;;;;;5.61;67.37;98962.84;5060052;28;45257;-61
2021/12/08 06:38:24;;;;;;;;;1.00;1.00;;;;;5.59;67.17;98968.19;5061537;28;45648;-61
2021/12/08 06:41:23;;;;;;;;;1.50;0.50;;;;;5.60;67.17;98979.44;5078220;28;45347;-61
2021/12/08 06:43:54;;;;;;;;;2.50;0.00;;;;;5.58;67.01;98992.59;5078141;28;45354;-61
2021/12/08 06:46:21;;;;;;;;;1.00;1.00;;;;;5.57;67.63;99005.78;5078287;28;45224;-61
2021/12/08 06:48:51;;;;;;;;;2.25;1.25;;;;;5.57;67.42;99011.00;5060023;28;46289;-61
2021/12/08 06:51:20;;;;;;;;;2.00;1.00;;;;;5.54;67.48;99006.06;5077973;28;46022;-61
2021/12/08 06:53:47;;;;;;;;;4.00;2.00;;;;;5.54;67.59;99012.13;5059895;28;45365;-61
2021/12/08 06:56:23;;;;;;;;;1.25;1.00;;;;;5.52;67.51;99005.38;5078033;28;45469;-62
2021/12/08 06:58:50;;;;;;;;;3.50;1.75;;;;;5.52;67.72;99010.59;5059706;28;45483;-61
2021/12/08 07:02:09;;;;;;;;;2.00;2.00;;;;;5.49;67.73;99007.31;5077860;28;45414;-62
2021/12/08 07:06:59;;;;;;;;;4.00;2.00;;;;;5.49;67.72;99002.09;5078121;28;45312;-62
2021/12/08 07:09:42;;;;;;;;;2.00;1.50;;;;;5.48;67.66;98994.44;5077776;28;46304;-62
2021/12/08 07:12:38;;;;;;;;;1.00;1.00;;;;;5.48;67.49;98994.44;5077599;28;48267;-62
2021/12/08 07:15:22;;;;;;;;;4.00;1.25;;;;;5.45;67.74;98998.13;5077935;28;45331;-62
2021/12/08 07:17:50;;;;;;;;;7.00;2.25;;;;;5.41;67.87;98986.34;5077801;28;45310;-62
2021/12/08 07:20:45;;;;;;;;;7.50;2.00;;;;;5.42;67.87;98989.78;5077463;28;45350;-62
2021/12/08 07:23:15;;;;;;;;;3.25;2.75;;;;;5.40;67.93;98987.31;5063492;28;45405;-62
2021/12/08 07:25:41;;;;;;;;;6.00;5.75;;;;;5.41;68.07;98993.34;5077703;28;45228;-61
2021/12/08 07:28:06;;;;;;;;;2.50;2.50;;;;;5.39;68.04;99001.31;5059486;28;45257;-62
2021/12/08 07:30:46;;;;;;;;;3.00;3.00;;;;;5.40;68.02;99007.34;5042447;28;45396;-62
2021/12/08 07:33:12;;;;;;;;;5.00;2.00;;;;;5.39;68.19;99009.13;5077247;28;50135;-62
2021/12/08 07:35:42;;;;;;;;;3.00;1.25;;;;;5.37;68.06;99008.44;5059283;28;45332;-61
2021/12/08 07:38:09;;;;;;;;;3.25;1.25;;;;;5.38;68.08;99014.47;5059479;28;45613;-62
2021/12/08 07:41:10;;;;;;;;;5.50;2.75;;;;;5.37;68.14;99008.44;5059159;28;45664;-61
2021/12/08 07:43:38;;;;;;;;;3.75;1.75;;;;;5.35;68.20;99005.97;5041743;28;45400;-61
2021/12/08 07:46:06;;;;;;;;;3.25;2.00;;;;;5.38;68.20;99017.09;5059505;28;45381;-61
2021/12/08 07:48:50;;;;;;;;;3.50;3.00;;;;;5.39;68.10;99016.94;5077102;28;45380;-62
2021/12/08 07:51:22;;;;;;;;;2.75;1.00;;;;;5.38;68.11;99017.88;5059208;28;45481;-62
2021/12/08 07:53:47;;;;;;;;;2.50;1.50;;;;;5.38;68.20;99015.28;5076990;28;45828;-60
2021/12/08 07:56:14;;;;;;;;;3.00;1.75;;;;;5.37;68.03;99016.25;5076838;28;45303;-60
2021/12/08 07:58:41;;;;;;;;;2.50;2.00;;;;;5.38;68.18;99025.69;5076938;28;45477;-60
2021/12/08 08:01:14;;;;;;;;;2.00;2.00;;;;;5.39;68.06;99040.38;5076629;28;45642;-61
2021/12/08 08:03:40;;;;;;;;;3.50;2.00;;;;;5.41;68.11;99035.84;5076899;28;45869;-60
2021/12/08 08:06:08;;;;;;;;;6.25;3.00;;;;;5.42;68.35;99034.88;5076855;28;45412;-60
2021/12/08 08:08:35;;;;;;;;;4.00;1.25;;;;;5.44;68.26;99035.56;5042145;28;45341;-60
2021/12/08 08:11:07;;;;;;;;;2.00;2.00;;;;;5.46;68.14;99033.66;5076612;28;45642;-60
2021/12/08 08:13:32;;;;;;;;;3.00;1.75;;;;;5.48;68.14;99036.94;5058683;28;45241;-60
2021/12/08 08:16:05;;;;;;;;;3.25;2.00;;;;;5.50;68.14;99036.81;5075652;28;65043;-60
2021/12/08 08:18:34;;;;;;;;;1.00;1.00;;;;;5.50;68.28;99037.63;5059595;28;45338;-60
2021/12/08 08:21:01;;;;;;;;;4.25;2.25;;;;;5.52;67.99;99039.25;5058389;28;46434;-60
2021/12/08 08:23:27;;;;;;;;;2.75;1.00;;;;;5.54;68.08;99043.38;5075561;28;45975;-61
2021/12/08 08:25:53;;;;;;;;;3.50;2.50;;;;;5.54;67.89;99037.34;5056852;28;45484;-60
2021/12/08 08:28:19;;;;;;;;;6.25;3.00;;;;;5.56;68.10;99027.59;5075142;28;45779;-60
2021/12/08 08:31:07;;;;;;;;;3.50;2.00;;;;;5.57;67.90;99037.88;5056633;28;46351;-60
2021/12/08 08:33:33;;;;;;;;;5.50;2.00;;;;;5.58;67.87;99030.88;5058395;28;45672;-60
2021/12/08 08:36:04;;;;;;;;;8.00;3.00;;;;;5.60;67.87;99028.97;5056897;28;45438;-60
2021/12/08 08:38:33;;;;;;;;;3.50;2.00;;;;;5.60;67.89;99029.75;5076061;28;45406;-60
2021/12/08 08:41:01;;;;;;;;;4.00;3.00;;;;;5.62;67.84;99040.06;5074622;28;45371;-60
2021/12/08 08:43:26;;;;;;;;;3.75;3.75;;;;;5.62;67.93;99046.09;5070700;27;45502;-60
2021/12/08 08:46:02;;;;;;;;;4.00;2.25;;;;;5.65;68.03;99052.81;5058174;27;59848;-62
2021/12/08 08:48:34;;;;;;;;;2.50;2.00;;;;;5.68;67.93;99052.53;5076360;27;45428;-60
2021/12/08 08:51:08;;;;;;;;;2.00;2.00;;;;;5.70;67.95;99061.03;5077934;27;45564;-61
2021/12/08 08:53:35;;;;;;;;;6.75;2.00;;;;;5.74;67.86;99067.59;5058575;28;45920;-60
2021/12/08 08:56:05;;;;;;;;;9.00;2.50;;;;;5.77;67.72;99062.13;5079162;27;45389;-61
2021/12/08 08:58:31;;;;;;;;;3.25;2.50;;;;;5.82;67.64;99063.47;5085809;27;45530;-60
2021/12/08 09:01:05;;;;;;;;;3.00;2.00;;;;;5.85;67.92;99063.16;5094301;27;46031;-62
2021/12/08 09:03:34;;;;;;;;;6.50;2.75;;;;;5.90;67.81;99059.19;5063015;27;45387;-60
2021/12/08 09:06:08;;;;;;;;;5.00;3.00;;;;;5.95;67.83;99063.97;5093401;27;45447;-61
2021/12/08 09:08:34;;;;;;;;;3.50;2.50;;;;;5.99;67.68;99059.31;5082243;27;45286;-60
2021/12/08 09:11:06;;;;;;;;;4.25;2.00;;;;;6.04;67.34;99055.31;5081406;27;46134;-60
2021/12/08 09:13:38;;;;;;;;;2.75;2.00;;;;;6.08;67.25;99046.25;5081601;27;45995;-60
2021/12/08 09:16:07;;;;;;;;;7.75;3.50;;;;;6.13;67.28;99051.00;5081393;27;45578;-62
2021/12/08 09:18:46;;;;;;;;;3.50;3.00;;;;;6.17;67.04;99057.59;5090153;27;45457;-62
2021/12/08 09:21:21;;;;;;;;;4.00;2.75;;;;;6.23;67.10;99059.63;5081699;27;45866;-60
2021/12/08 09:23:47;;;;;;;;;4.00;2.00;;;;;6.31;66.97;99063.31;5072032;27;46065;-60
2021/12/08 09:26:14;;;;;;;;;6.75;3.00;;;;;6.35;66.79;99073.31;5081363;27;45467;-60
2021/12/08 09:28:57;;;;;;;;;3.50;2.25;;;;;6.42;66.26;99085.75;5082479;27;45435;-63
2021/12/08 09:31:35;;;;;;;;;4.25;3.00;;;;;6.51;66.32;99090.09;5081314;27;45747;-60
2021/12/08 09:34:06;;;;;;;;;3.00;3.00;;;;;6.62;66.35;99100.34;5088218;27;45944;-60
2021/12/08 09:36:45;;;;;;;;;5.25;3.00;;;;;6.77;66.49;99107.69;5091707;27;45357;-62
2021/12/08 09:39:26;;;;;;;;;5.25;4.25;;;;;6.96;65.88;99104.94;5081736;27;45402;-62
2021/12/08 09:41:58;;;;;;;;;19.75;14.50;;;;;7.13;65.58;99103.34;5079531;27;50153;-62
2021/12/08 09:44:32;;;;;;;;;8.00;4.00;;;;;7.31;65.09;99101.69;5061187;28;45778;-62
2021/12/08 09:46:57;;;;;;;;;3.25;2.25;;;;;7.47;64.70;99103.59;5064827;28;45398;-62
2021/12/08 09:49:24;;;;;;;;;2.25;2.00;;;;;7.60;64.00;99096.19;5063215;28;51110;-62
2021/12/08 09:51:51;;;;;;;;;4.25;2.50;;;;;7.73;63.71;99101.00;5045169;28;47053;-62
2021/12/08 09:54:16;;;;;;;;;3.25;2.25;;;;;7.83;63.20;99096.50;5063018;28;45277;-63
2021/12/08 09:56:43;;;;;;;;;4.50;4.00;;;;;7.94;63.05;99100.66;5042512;28;45432;-62
2021/12/08 09:59:09;;;;;;;;;1.00;1.00;;;;;8.04;62.80;99097.13;5053391;28;45634;-62
2021/12/08 10:01:37;;;;;;;;;5.25;3.00;;;;;8.12;62.34;99094.56;5060312;28;45537;-62
2021/12/08 10:04:03;;;;;;;;;2.25;2.00;;;;;8.21;62.03;99093.63;5044205;28;46001;-63
2021/12/08 10:06:29;;;;;;;;;4.00;2.00;;;;;8.32;61.94;99100.38;5038980;28;46315;-62
2021/12/08 10:08:57;;;;;;;;;4.00;2.00;;;;;8.47;61.52;99095.34;5057391;28;45452;-63
2021/12/08 10:11:23;;;;;;;;;3.00;3.00;;;;;8.67;61.65;99089.88;5039588;28;45708;-62
2021/12/08 10:13:48;;;;;;;;;5.00;3.00;;;;;8.89;61.11;99083.22;5039943;28;47069;-62
2021/12/08 10:16:14;;;;;;;;;2.00;2.00;;;;;9.07;60.32;99072.59;5056144;28;66286;-63
2021/12/08 10:18:40;;;;;;;;;2.00;2.00;;;;;9.20;59.83;99069.50;5073232;28;45299;-63
2021/12/08 10:21:06;;;;;;;;;3.00;1.25;;;;;9.35;59.31;99073.09;5056084;28;45445;-63
2021/12/08 10:23:35;;;;;;;;;4.75;3.00;;;;;9.53;58.92;99071.28;5038675;28;50336;-63
2021/12/08 10:26:04;;;;;;;;;4.00;2.00;;;;;9.68;58.60;99067.00;5056966;28;45411;-62
2021/12/08 10:28:34;;;;;;;;;3.00;2.00;;;;;9.83;57.91;99056.66;5059808;28;45316;-62
2021/12/08 10:31:29;;;;;;;;;5.00;2.50;;;;;9.93;57.64;99057.28;5055656;28;45391;-62
2021/12/08 10:34:21;;;;;;;;;3.00;3.00;;;;;10.03;57.53;99057.09;5061929;28;45454;-62
2021/12/08 10:36:52;;;;;;;;;3.00;2.00;;;;;10.16;57.96;99053.91;5049125;28;45284;-62
2021/12/08 10:39:45;;;;;;;;;4.00;2.50;;;;;10.32;57.05;99058.31;5056815;28;45415;-62
2021/12/08 10:42:18;;;;;;;;;4.00;2.50;;;;;10.42;56.54;99052.88;5069729;27;46569;-62
2021/12/08 10:45:14;;;;;;;;;5.00;3.00;;;;;10.45;56.08;99054.31;5088459;27;45920;-62
2021/12/08 10:47:48;;;;;;;;;7.25;6.50;;;;;10.50;56.35;99065.13;5085487;27;45434;-62
2021/12/08 10:56:02;;;;;;;;;3.25;2.00;;;;;10.48;54.97;99053.97;5086644;27;45420;-63
2021/12/08 10:58:32;;;;;;;;;5.00;2.00;;;;;10.47;55.35;99061.03;5090275;27;45545;-62
2021/12/08 11:01:11;;;;;;;;;5.00;4.00;;;;;10.49;55.15;99058.22;5088058;27;45534;-62
2021/12/08 11:03:38;;;;;;;;;4.00;3.00;;;;;10.48;54.95;99061.84;5088791;27;46073;-62
2021/12/08 11:06:04;;;;;;;;;2.25;2.00;;;;;10.48;54.51;99057.44;5068162;27;45457;-62
2021/12/08 11:08:51;;;;;;;;;3.50;3.00;;;;;10.46;54.38;99053.31;5077129;27;45205;-62
2021/12/08 11:11:20;;;;;;;;;4.00;2.00;;;;;10.46;54.38;99053.31;5073655;28;45449;-62
2021/12/08 11:13:47;;;;;;;;;4.75;3.00;;;;;10.45;54.62;99059.56;5081497;27;45383;-62
2021/12/08 11:16:19;;;;;;;;;3.00;3.00;;;;;10.47;54.24;99058.41;5085695;27;45726;-62
2021/12/08 11:18:49;;;;;;;;;6.00;3.00;;;;;10.51;53.67;99067.59;5069930;27;45402;-62
2021/12/08 11:21:21;;;;;;;;;3.00;1.75;;;;;10.53;53.90;99067.41;5086111;27;45370;-62
2021/12/08 11:23:48;;;;;;;;;8.50;5.50;;;;;10.51;54.18;99074.63;5048568;28;48204;-61
2021/12/08 11:26:25;;;;;;;;;16.00;13.75;;;;;10.49;53.88;99082.69;5083906;27;45757;-62
2021/12/08 11:29:07;;;;;;;;;9.50;8.75;;;;;10.47;53.71;99089.94;5070267;27;45592;-62
2021/12/08 11:31:38;;;;;;;;;1.50;1.00;;;;;10.43;53.67;99093.88;5083470;27;45411;-62
2021/12/08 11:34:22;;;;;;;;;5.75;3.00;;;;;10.40;53.66;99081.09;5065064;28;46394;-62
2021/12/08 11:36:52;;;;;;;;;5.75;4.00;;;;;10.39;53.93;99080.25;5083011;27;45294;-62
2021/12/08 11:39:20;;;;;;;;;5.25;3.25;;;;;10.38;54.02;99085.66;5084737;27;45538;-62
2021/12/08 11:41:47;;;;;;;;;4.00;3.00;;;;;10.38;53.67;99077.78;5050929;27;45415;-62
2021/12/08 11:44:21;;;;;;;;;4.75;4.00;;;;;10.36;54.19;99079.78;5058324;27;45474;-62
2021/12/08 11:47:03;;;;;;;;;5.25;3.25;;;;;10.33;54.31;99072.22;5075065;27;45860;-61
2021/12/08 11:49:29;;;;;;;;;2.25;2.25;;;;;10.30;53.74;99081.28;5076118;27;45367;-62
2021/12/08 11:52:01;;;;;;;;;3.00;3.00;;;;;10.24;53.95;99066.22;5068550;27;60808;-62
2021/12/08 11:54:29;;;;;;;;;4.00;2.25;;;;;10.19;53.93;99069.31;5078835;27;46223;-62
2021/12/08 11:57:12;;;;;;;;;5.75;4.00;;;;;10.14;53.82;99065.59;5075634;27;45442;-62
2021/12/08 12:00:04;;;;;;;;;6.00;4.25;;;;;10.10;54.35;99072.97;5056817;27;45193;-62
2021/12/08 12:02:35;;;;;;;;;4.75;2.75;;;;;10.09;54.25;99076.56;5073813;27;45431;-61
2021/12/08 12:05:03;;;;;;;;;3.25;2.75;;;;;10.09;54.02;99081.81;5075653;27;46189;-61
2021/12/08 12:07:29;;;;;;;;;2.00;2.00;;;;;10.09;54.42;99077.41;5058227;27;45470;-62
2021/12/08 12:09:54;;;;;;;;;6.00;4.00;;;;;10.10;54.23;99079.03;5058983;27;61859;-62
2021/12/08 12:12:20;;;;;;;;;4.50;3.75;;;;;10.14;54.03;99082.13;5066322;27;45343;-62
2021/12/08 12:14:45;;;;;;;;;6.00;2.75;;;;;10.15;54.67;99089.03;5058728;28;45549;-62
2021/12/08 12:17:10;;;;;;;;;2.25;2.25;;;;;10.16;54.09;99090.66;5075500;27;45504;-62
2021/12/08 12:19:49;;;;;;;;;6.25;2.00;;;;;10.16;53.77;99095.91;5076017;27;45944;-62
2021/12/08 12:22:55;;;;;;;;;5.00;3.50;;;;;10.12;54.14;99097.22;5075907;27;45338;-62
2021/12/08 12:25:43;;;;;;;;;6.50;4.25;;;;;10.07;54.01;99099.53;5054974;27;45561;-62
2021/12/08 12:28:32;;;;;;;;;6.00;5.25;;;;;9.99;54.46;99112.69;5079739;27;45464;-62
2021/12/08 12:31:25;;;;;;;;;8.00;4.75;;;;;9.89;54.40;99113.69;5074893;27;45324;-62
2021/12/08 12:33:51;;;;;;;;;5.75;4.75;;;;;9.79;54.58;99116.50;5076931;27;45368;-62
2021/12/08 12:36:18;;;;;;;;;5.75;5.25;;;;;9.70;54.73;99124.53;5057892;27;46473;-62